createdAt,value
2016-10-27T00:00:10.040Z,20.50
2016-10-27T00:01:11.376Z,20.40
2016-10-27T00:02:11.676Z,20.40
2016-10-27T00:03:11.885Z,20.40
2016-10-27T00:04:13.899Z,20.40
2016-10-27T00:05:12.372Z,20.50
2016-10-27T00:06:11.913Z,20.50
2016-10-27T00:07:12.559Z,20.40
2016-10-27T00:08:14.344Z,20.40
2016-10-27T00:09:15.046Z,20.50
2016-10-27T00:10:11.509Z,20.50
2016-10-27T00:11:12.301Z,20.50
2016-10-27T00:12:12.020Z,20.40
2016-10-27T00:13:12.128Z,20.40
2016-10-27T00:14:11.789Z,20.40
2016-10-27T00:15:15.851Z,20.40
2016-10-27T00:16:11.944Z,20.40
2016-10-27T00:17:11.492Z,20.40
2016-10-27T00:18:11.647Z,20.40
2016-10-27T00:19:11.958Z,20.40
2016-10-27T00:20:12.927Z,20.40
2016-10-27T00:21:11.996Z,20.40
2016-10-27T00:22:12.745Z,20.40
2016-10-27T00:23:12.226Z,20.40
2016-10-27T00:24:14.538Z,20.40
2016-10-27T00:25:14.329Z,20.40
2016-10-27T00:26:11.609Z,20.40
2016-10-27T00:27:13.332Z,20.40
2016-10-27T00:28:11.625Z,20.40
2016-10-27T00:29:13.346Z,20.40
2016-10-27T00:30:11.370Z,20.40
2016-10-27T00:31:12.162Z,20.40
2016-10-27T00:32:11.439Z,20.40
2016-10-27T00:33:12.106Z,20.40
2016-10-27T00:34:11.217Z,20.40
2016-10-27T00:35:11.182Z,20.40
2016-10-27T00:36:13.289Z,20.40
2016-10-27T00:37:14.465Z,20.40
2016-10-27T00:38:12.624Z,20.40
2016-10-27T00:39:10.426Z,20.40
2016-10-27T00:40:11.944Z,20.40
2016-10-27T00:41:11.093Z,20.40
2016-10-27T00:42:11.157Z,20.40
2016-10-27T00:43:11.851Z,20.40
2016-10-27T00:44:11.787Z,20.40
2016-10-27T00:45:11.861Z,20.40
2016-10-27T00:46:13.345Z,20.40
2016-10-27T00:47:11.730Z,20.40
2016-10-27T00:48:12.343Z,20.40
2016-10-27T00:49:11.520Z,20.40
2016-10-27T00:50:09.747Z,20.50
2016-10-27T00:51:11.154Z,20.40
2016-10-27T00:52:12.995Z,20.40
2016-10-27T00:53:11.622Z,20.40
2016-10-27T00:54:12.335Z,20.40
2016-10-27T00:55:10.027Z,20.40
2016-10-27T00:56:12.153Z,20.40
2016-10-27T00:57:13.278Z,20.40
2016-10-27T00:58:12.938Z,20.40
2016-10-27T00:59:12.124Z,20.40
2016-10-27T01:00:12.335Z,20.50
2016-10-27T01:17:10.241Z,20.40
2016-10-27T01:18:11.702Z,20.40
2016-10-27T01:19:10.162Z,20.50
2016-10-27T01:20:11.875Z,20.50
2016-10-27T01:21:13.259Z,20.40
2016-10-27T01:22:12.709Z,20.40
2016-10-27T01:23:12.022Z,20.40
2016-10-27T01:24:14.679Z,20.40
2016-10-27T01:25:09.795Z,20.40
2016-10-27T01:26:11.442Z,20.40
2016-10-27T01:27:12.606Z,20.40
2016-10-27T01:28:08.955Z,20.40
2016-10-27T01:29:12.213Z,20.40
2016-10-27T01:30:11.644Z,20.40
2016-10-27T01:31:11.823Z,20.40
2016-10-27T01:32:12.681Z,20.40
2016-10-27T01:33:12.374Z,20.40
2016-10-27T01:34:09.713Z,20.40
2016-10-27T01:35:11.702Z,20.40
2016-10-27T01:36:14.455Z,20.40
2016-10-27T01:37:14.490Z,20.40
2016-10-27T01:38:12.524Z,20.40
2016-10-27T01:39:09.298Z,20.40
2016-10-27T01:40:12.161Z,20.40
2016-10-27T01:41:08.596Z,20.40
2016-10-27T01:42:11.839Z,20.40
2016-10-27T01:43:12.582Z,20.40
2016-10-27T01:44:13.304Z,20.40
2016-10-27T01:45:09.525Z,20.40
2016-10-27T01:46:12.103Z,20.40
2016-10-27T01:47:09.873Z,20.40
2016-10-27T01:48:09.971Z,20.40
2016-10-27T01:49:12.395Z,20.40
2016-10-27T01:50:12.273Z,20.40
2016-10-27T01:51:11.526Z,20.40
2016-10-27T01:52:14.683Z,20.40
2016-10-27T01:53:12.004Z,20.40
2016-10-27T01:54:12.095Z,20.40
2016-10-27T01:55:11.899Z,20.40
2016-10-27T01:56:13.125Z,20.40
2016-10-27T01:57:11.993Z,20.40
2016-10-27T01:58:11.960Z,20.40
2016-10-27T01:59:11.861Z,20.40
2016-10-27T02:00:11.998Z,20.40
2016-10-27T02:01:11.951Z,20.40
2016-10-27T02:02:12.751Z,20.40
2016-10-27T02:03:12.443Z,20.40
2016-10-27T02:04:12.970Z,20.40
2016-10-27T02:05:14.906Z,20.40
2016-10-27T02:06:11.485Z,20.40
2016-10-27T02:07:10.310Z,20.40
2016-10-27T02:08:11.995Z,20.40
2016-10-27T02:09:11.400Z,20.40
2016-10-27T02:10:11.703Z,20.40
2016-10-27T02:11:11.882Z,20.40
2016-10-27T02:12:11.139Z,20.40
2016-10-27T02:13:11.677Z,20.40
2016-10-27T02:14:11.825Z,20.40
2016-10-27T02:15:12.041Z,20.40
2016-10-27T02:16:11.313Z,20.40
2016-10-27T02:17:12.450Z,20.40
2016-10-27T02:18:15.250Z,20.40
2016-10-27T02:19:11.594Z,20.40
2016-10-27T02:20:11.765Z,20.40
2016-10-27T02:21:11.613Z,20.40
2016-10-27T02:22:12.449Z,20.40
2016-10-27T02:23:11.599Z,20.40
2016-10-27T02:24:11.823Z,20.40
2016-10-27T02:25:13.732Z,20.40
2016-10-27T02:26:12.782Z,20.40
2016-10-27T02:27:12.797Z,20.40
2016-10-27T02:28:11.776Z,20.40
2016-10-27T02:29:11.981Z,20.40
2016-10-27T02:30:09.903Z,20.40
2016-10-27T02:31:12.952Z,20.40
2016-10-27T02:32:13.691Z,20.40
2016-10-27T02:33:13.727Z,20.40
2016-10-27T02:34:10.298Z,20.40
2016-10-27T02:35:12.045Z,20.40
2016-10-27T02:36:08.956Z,20.40
2016-10-27T02:37:12.003Z,20.40
2016-10-27T02:38:11.124Z,20.40
2016-10-27T02:39:11.740Z,20.40
2016-10-27T02:40:12.821Z,20.40
2016-10-27T02:41:12.424Z,20.40
2016-10-27T02:42:11.823Z,20.40
2016-10-27T02:43:12.153Z,20.40
2016-10-27T02:44:11.456Z,20.40
2016-10-27T02:45:11.717Z,20.40
2016-10-27T02:46:16.269Z,20.40
2016-10-27T02:47:12.779Z,20.40
2016-10-27T02:48:13.324Z,20.40
2016-10-27T02:49:11.747Z,20.40
2016-10-27T02:50:11.993Z,20.40
2016-10-27T02:51:12.946Z,20.40
2016-10-27T02:52:11.855Z,20.40
2016-10-27T02:53:13.908Z,20.40
2016-10-27T02:54:12.377Z,20.40
2016-10-27T02:55:12.686Z,20.40
2016-10-27T02:56:11.895Z,20.40
2016-10-27T02:57:12.699Z,20.40
2016-10-27T02:58:12.289Z,20.40
2016-10-27T02:59:15.399Z,20.40
2016-10-27T03:00:10.298Z,20.40
2016-10-27T03:01:12.517Z,20.40
2016-10-27T03:02:12.260Z,20.40
2016-10-27T03:03:11.970Z,20.40
2016-10-27T03:04:12.048Z,20.40
2016-10-27T03:05:11.452Z,20.40
2016-10-27T03:06:12.508Z,20.40
2016-10-27T03:07:12.338Z,20.40
2016-10-27T03:08:12.227Z,20.40
2016-10-27T03:09:11.463Z,20.40
2016-10-27T03:10:12.597Z,20.40
2016-10-27T03:11:12.317Z,20.40
2016-10-27T03:12:16.590Z,20.40
2016-10-27T03:13:11.303Z,20.40
2016-10-27T03:14:13.358Z,20.40
2016-10-27T03:15:11.327Z,20.40
2016-10-27T03:16:11.637Z,20.40
2016-10-27T03:17:12.997Z,20.40
2016-10-27T03:18:12.459Z,20.40
2016-10-27T03:19:11.846Z,20.40
2016-10-27T03:20:12.514Z,20.40
2016-10-27T03:21:13.165Z,20.40
2016-10-27T03:22:12.130Z,20.40
2016-10-27T03:23:11.966Z,20.40
2016-10-27T03:24:12.799Z,20.40
2016-10-27T03:25:14.875Z,20.40
2016-10-27T03:26:12.156Z,20.40
2016-10-27T03:27:11.852Z,20.40
2016-10-27T03:28:12.832Z,20.40
2016-10-27T03:29:11.971Z,20.40
2016-10-27T03:30:11.761Z,20.40
2016-10-27T03:31:12.567Z,20.40
2016-10-27T03:32:12.021Z,20.40
2016-10-27T03:33:11.089Z,20.40
2016-10-27T03:34:12.173Z,20.40
2016-10-27T03:35:11.570Z,20.40
2016-10-27T03:36:12.330Z,20.40
2016-10-27T03:37:12.241Z,20.40
2016-10-27T03:38:17.470Z,20.40
2016-10-27T03:39:11.302Z,20.40
2016-10-27T03:40:12.080Z,20.40
2016-10-27T03:41:09.080Z,20.40
2016-10-27T03:42:12.213Z,20.40
2016-10-27T03:43:11.916Z,20.40
2016-10-27T03:44:11.251Z,20.40
2016-10-27T03:45:11.500Z,20.40
2016-10-27T03:46:12.595Z,20.40
2016-10-27T03:47:12.293Z,20.40
2016-10-27T03:48:12.306Z,20.40
2016-10-27T03:49:11.811Z,20.40
2016-10-27T03:50:12.484Z,20.40
2016-10-27T03:51:17.267Z,20.40
2016-10-27T03:52:11.922Z,20.40
2016-10-27T03:53:08.856Z,20.40
2016-10-27T03:54:11.696Z,20.40
2016-10-27T03:55:11.928Z,20.40
2016-10-27T03:56:12.233Z,20.40
2016-10-27T03:57:11.947Z,20.40
2016-10-27T03:58:12.861Z,20.40
2016-10-27T03:59:12.192Z,20.40
2016-10-27T04:00:11.201Z,20.40
2016-10-27T04:01:11.387Z,20.40
2016-10-27T04:02:17.804Z,20.40
2016-10-27T04:03:11.873Z,20.40
2016-10-27T04:04:13.279Z,20.40
2016-10-27T04:05:11.362Z,20.40
2016-10-27T04:06:11.943Z,20.40
2016-10-27T04:07:12.237Z,20.40
2016-10-27T04:08:12.018Z,20.40
2016-10-27T04:09:11.834Z,20.40
2016-10-27T04:10:11.291Z,20.40
2016-10-27T04:11:09.166Z,20.40
2016-10-27T04:12:13.302Z,20.40
2016-10-27T04:13:11.835Z,20.40
2016-10-27T04:14:11.951Z,20.40
2016-10-27T04:15:13.070Z,20.40
2016-10-27T04:16:11.333Z,20.40
2016-10-27T04:17:12.763Z,20.40
2016-10-27T04:18:12.347Z,20.40
2016-10-27T04:19:11.756Z,20.40
2016-10-27T04:20:11.763Z,20.40
2016-10-27T04:21:13.269Z,20.40
2016-10-27T04:22:11.914Z,20.40
2016-10-27T04:23:11.946Z,20.40
2016-10-27T04:24:11.717Z,20.40
2016-10-27T04:25:13.176Z,20.40
2016-10-27T04:26:14.008Z,20.40
2016-10-27T04:27:11.688Z,20.40
2016-10-27T04:28:10.922Z,20.40
2016-10-27T04:29:11.843Z,20.40
2016-10-27T04:30:13.790Z,20.40
2016-10-27T04:31:11.393Z,20.40
2016-10-27T04:32:15.499Z,20.40
2016-10-27T04:33:11.762Z,20.40
2016-10-27T04:34:12.505Z,20.40
2016-10-27T04:35:11.605Z,20.40
2016-10-27T04:36:12.687Z,20.40
2016-10-27T04:37:12.333Z,20.40
2016-10-27T04:38:11.635Z,20.40
2016-10-27T04:39:12.291Z,20.40
2016-10-27T04:40:13.162Z,20.40
2016-10-27T04:41:14.032Z,20.40
2016-10-27T04:42:13.253Z,20.40
2016-10-27T04:43:11.814Z,20.40
2016-10-27T04:44:12.155Z,20.40
2016-10-27T04:45:11.535Z,20.40
2016-10-27T04:46:13.662Z,20.40
2016-10-27T04:47:11.699Z,20.40
2016-10-27T04:48:12.012Z,20.40
2016-10-27T04:49:11.179Z,20.40
2016-10-27T04:50:12.041Z,20.40
2016-10-27T04:51:09.711Z,20.40
2016-10-27T04:52:12.020Z,20.40
2016-10-27T04:53:11.306Z,20.40
2016-10-27T04:54:14.134Z,20.40
2016-10-27T04:55:12.036Z,20.40
2016-10-27T04:56:11.313Z,20.40
2016-10-27T04:57:12.079Z,20.40
2016-10-27T04:58:11.900Z,20.40
2016-10-27T04:59:12.131Z,20.40
2016-10-27T05:00:09.371Z,20.40
2016-10-27T05:01:11.854Z,20.40
2016-10-27T05:02:12.370Z,20.40
2016-10-27T05:03:11.562Z,20.40
2016-10-27T05:04:12.267Z,20.40
2016-10-27T05:05:12.180Z,20.40
2016-10-27T05:06:12.043Z,20.40
2016-10-27T05:07:11.929Z,20.40
2016-10-27T05:08:11.600Z,20.40
2016-10-27T05:09:11.882Z,20.40
2016-10-27T05:10:09.613Z,20.40
2016-10-27T05:11:12.059Z,20.40
2016-10-27T05:12:09.451Z,20.40
2016-10-27T05:13:12.548Z,20.40
2016-10-27T05:14:11.719Z,20.40
2016-10-27T05:15:10.194Z,20.40
2016-10-27T05:16:12.004Z,20.40
2016-10-27T05:17:12.980Z,20.40
2016-10-27T05:18:14.567Z,20.40
2016-10-27T05:19:11.696Z,20.40
2016-10-27T05:20:12.531Z,20.40
2016-10-27T05:21:09.954Z,20.40
2016-10-27T05:22:11.667Z,20.40
2016-10-27T05:23:13.526Z,20.40
2016-10-27T05:24:10.176Z,20.40
2016-10-27T05:25:12.138Z,20.40
2016-10-27T05:26:12.778Z,20.40
2016-10-27T05:27:12.285Z,20.40
2016-10-27T05:28:08.815Z,20.40
2016-10-27T05:29:12.402Z,20.40
2016-10-27T05:30:12.732Z,20.40
2016-10-27T05:31:14.863Z,20.40
2016-10-27T05:32:12.772Z,20.40
2016-10-27T05:33:11.923Z,20.40
2016-10-27T05:34:11.374Z,20.40
2016-10-27T05:35:12.346Z,20.40
2016-10-27T05:36:11.461Z,20.40
2016-10-27T05:37:11.761Z,20.40
2016-10-27T05:38:12.947Z,20.40
2016-10-27T05:39:12.572Z,20.30
2016-10-27T05:40:11.486Z,20.30
2016-10-27T05:41:12.168Z,20.40
2016-10-27T05:42:09.727Z,20.30
2016-10-27T05:43:13.836Z,20.30
2016-10-27T05:44:14.738Z,20.30
2016-10-27T05:45:11.723Z,20.30
2016-10-27T05:46:09.829Z,20.30
2016-10-27T05:47:13.225Z,20.30
2016-10-27T05:48:13.121Z,20.30
2016-10-27T05:49:11.570Z,20.30
2016-10-27T05:50:09.611Z,20.30
2016-10-27T05:51:12.324Z,20.30
2016-10-27T05:52:12.449Z,20.30
2016-10-27T05:53:12.178Z,20.30
2016-10-27T05:54:11.636Z,20.30
2016-10-27T05:55:14.810Z,20.30
2016-10-27T05:56:09.001Z,20.30
2016-10-27T05:57:13.481Z,20.30
2016-10-27T05:58:11.033Z,20.30
2016-10-27T05:59:11.267Z,20.30
2016-10-27T06:00:11.794Z,20.30
2016-10-27T06:01:13.391Z,20.30
2016-10-27T06:02:14.554Z,20.30
2016-10-27T06:03:12.210Z,20.30
2016-10-27T06:04:12.359Z,20.30
2016-10-27T06:05:11.651Z,20.30
2016-10-27T06:06:09.104Z,20.30
2016-10-27T06:07:12.093Z,20.30
2016-10-27T06:08:14.907Z,20.30
2016-10-27T06:09:12.705Z,20.30
2016-10-27T06:10:12.414Z,20.30
2016-10-27T06:11:12.413Z,20.30
2016-10-27T06:12:11.874Z,20.30
2016-10-27T06:13:12.957Z,20.30
2016-10-27T06:14:08.383Z,20.30
2016-10-27T06:15:12.972Z,20.30
2016-10-27T06:16:09.946Z,20.30
2016-10-27T06:17:11.940Z,20.30
2016-10-27T06:18:12.081Z,20.30
2016-10-27T06:19:15.387Z,20.30
2016-10-27T06:20:14.431Z,20.30
2016-10-27T06:21:12.009Z,20.30
2016-10-27T06:22:11.945Z,20.40
2016-10-27T06:23:11.744Z,20.40
2016-10-27T06:24:12.015Z,20.40
2016-10-27T06:25:09.685Z,20.40
2016-10-27T06:26:08.891Z,20.40
2016-10-27T06:27:12.158Z,20.40
2016-10-27T06:28:12.068Z,20.40
2016-10-27T06:29:13.117Z,20.40
2016-10-27T06:30:11.422Z,20.40
2016-10-27T06:31:12.338Z,20.40
2016-10-27T06:32:15.178Z,20.40
2016-10-27T06:33:11.903Z,20.40
2016-10-27T06:34:13.202Z,20.40
2016-10-27T06:35:11.487Z,20.40
2016-10-27T06:36:12.612Z,20.40
2016-10-27T06:37:13.247Z,19.90
2016-10-27T06:38:13.466Z,18.90
2016-10-27T06:39:12.149Z,18.10
2016-10-27T06:40:11.939Z,17.70
2016-10-27T06:41:12.529Z,17.30
2016-10-27T06:42:12.329Z,17.00
2016-10-27T06:43:15.740Z,16.70
2016-10-27T06:44:12.394Z,16.60
2016-10-27T06:45:09.540Z,16.80
2016-10-27T06:46:11.627Z,17.10
2016-10-27T06:47:09.263Z,17.40
2016-10-27T06:48:12.121Z,17.70
2016-10-27T06:49:11.283Z,18.00
2016-10-27T06:50:12.492Z,18.20
2016-10-27T06:51:13.545Z,18.40
2016-10-27T06:52:12.415Z,18.60
2016-10-27T06:53:13.524Z,18.70
2016-10-27T06:54:14.174Z,18.80
2016-10-27T06:55:12.587Z,18.90
2016-10-27T06:56:10.043Z,19.00
2016-10-27T06:57:11.915Z,19.10
2016-10-27T06:58:11.594Z,19.20
2016-10-27T06:59:12.736Z,19.30
2016-10-27T07:00:12.556Z,19.30
2016-10-27T07:01:09.456Z,19.40
2016-10-27T07:02:11.486Z,19.40
2016-10-27T07:03:13.050Z,19.50
2016-10-27T07:04:12.117Z,19.50
2016-10-27T07:05:11.498Z,19.50
2016-10-27T07:06:12.574Z,19.60
2016-10-27T07:07:14.509Z,19.60
2016-10-27T07:08:12.114Z,19.60
2016-10-27T07:09:11.208Z,19.70
2016-10-27T07:10:11.915Z,19.70
2016-10-27T07:11:12.307Z,19.70
2016-10-27T07:12:11.438Z,19.70
2016-10-27T07:13:11.968Z,19.70
2016-10-27T07:14:11.357Z,19.70
2016-10-27T07:15:11.648Z,19.70
2016-10-27T07:16:11.811Z,19.80
2016-10-27T07:17:12.988Z,19.80
2016-10-27T07:18:14.079Z,19.80
2016-10-27T07:19:12.060Z,19.80
2016-10-27T07:20:14.733Z,19.80
2016-10-27T07:21:12.653Z,19.80
2016-10-27T07:22:11.849Z,19.80
2016-10-27T07:23:13.211Z,19.80
2016-10-27T07:24:12.231Z,19.80
2016-10-27T07:25:11.493Z,19.80
2016-10-27T07:26:11.666Z,19.90
2016-10-27T07:27:11.807Z,19.80
2016-10-27T07:28:12.494Z,19.90
2016-10-27T07:29:14.273Z,19.90
2016-10-27T07:30:13.005Z,19.90
2016-10-27T07:31:12.365Z,19.90
2016-10-27T07:32:13.318Z,19.90
2016-10-27T07:33:12.039Z,19.90
2016-10-27T07:34:11.827Z,19.90
2016-10-27T07:35:12.256Z,19.90
2016-10-27T07:36:11.979Z,19.90
2016-10-27T07:37:12.013Z,19.90
2016-10-27T07:38:11.464Z,19.90
2016-10-27T07:39:12.605Z,19.90
2016-10-27T07:40:14.568Z,19.90
2016-10-27T07:41:11.818Z,19.90
2016-10-27T07:42:16.137Z,19.90
2016-10-27T07:43:12.034Z,19.80
2016-10-27T07:44:11.477Z,19.80
2016-10-27T07:45:11.803Z,19.70
2016-10-27T07:46:12.102Z,19.70
2016-10-27T07:47:11.995Z,19.70
2016-10-27T07:48:11.306Z,19.60
2016-10-27T07:49:12.984Z,19.70
2016-10-27T07:50:11.507Z,19.70
2016-10-27T07:51:12.325Z,19.70
2016-10-27T07:52:12.606Z,19.70
2016-10-27T07:53:14.575Z,19.70
2016-10-27T07:54:09.601Z,19.70
2016-10-27T07:55:13.489Z,19.70
2016-10-27T07:56:11.337Z,19.80
2016-10-27T07:57:12.217Z,19.80
2016-10-27T07:58:12.756Z,19.80
2016-10-27T07:59:09.836Z,19.80
2016-10-27T08:00:11.733Z,19.80
2016-10-27T08:01:12.726Z,19.80
2016-10-27T08:02:10.566Z,19.80
2016-10-27T08:03:11.205Z,19.80
2016-10-27T08:04:14.413Z,19.80
2016-10-27T08:05:11.872Z,19.80
2016-10-27T08:06:10.378Z,19.90
2016-10-27T08:07:11.715Z,19.90
2016-10-27T08:08:09.813Z,19.90
2016-10-27T08:09:13.320Z,19.90
2016-10-27T08:10:12.730Z,20.00
2016-10-27T08:11:12.956Z,20.00
2016-10-27T08:12:11.715Z,20.00
2016-10-27T08:13:12.127Z,20.00
2016-10-27T08:14:12.019Z,20.00
2016-10-27T08:15:13.933Z,19.90
2016-10-27T08:16:12.354Z,19.90
2016-10-27T08:17:12.425Z,19.90
2016-10-27T08:18:11.868Z,19.90
2016-10-27T08:19:12.759Z,19.90
2016-10-27T08:20:12.074Z,19.90
2016-10-27T08:21:09.022Z,19.90
2016-10-27T08:22:09.120Z,19.90
2016-10-27T08:23:12.207Z,20.00
2016-10-27T08:24:12.415Z,19.90
2016-10-27T08:25:12.137Z,20.00
2016-10-27T08:26:14.273Z,20.00
2016-10-27T08:27:12.635Z,20.00
2016-10-27T08:28:10.384Z,20.00
2016-10-27T08:29:11.475Z,20.00
2016-10-27T08:30:11.965Z,20.00
2016-10-27T08:31:08.496Z,20.00
2016-10-27T08:32:13.752Z,20.00
2016-10-27T08:33:11.987Z,20.00
2016-10-27T08:34:11.773Z,20.00
2016-10-27T08:35:13.297Z,20.00
2016-10-27T08:36:12.079Z,20.00
2016-10-27T08:37:14.061Z,20.00
2016-10-27T08:38:12.723Z,20.00
2016-10-27T08:39:13.478Z,20.00
2016-10-27T08:40:13.732Z,20.00
2016-10-27T08:41:11.879Z,20.00
2016-10-27T08:42:11.358Z,20.00
2016-10-27T08:43:13.302Z,20.00
2016-10-27T08:44:13.494Z,20.00
2016-10-27T08:45:12.105Z,20.00
2016-10-27T08:46:11.835Z,20.00
2016-10-27T08:47:11.908Z,20.00
2016-10-27T08:48:14.596Z,20.10
2016-10-27T08:49:12.695Z,20.00
2016-10-27T08:50:12.613Z,20.00
2016-10-27T08:51:10.453Z,20.00
2016-10-27T08:52:11.659Z,20.00
2016-10-27T08:53:12.058Z,20.10
2016-10-27T08:54:11.269Z,20.10
2016-10-27T08:55:12.406Z,20.10
2016-10-27T08:56:11.768Z,20.10
2016-10-27T08:57:10.437Z,20.10
2016-10-27T08:58:11.955Z,20.10
2016-10-27T08:59:14.350Z,20.10
2016-10-27T09:00:11.519Z,20.10
2016-10-27T09:01:11.918Z,20.10
2016-10-27T09:02:09.085Z,20.10
2016-10-27T09:03:12.707Z,20.10
2016-10-27T09:04:12.756Z,20.10
2016-10-27T09:05:11.848Z,20.10
2016-10-27T09:06:11.269Z,20.10
2016-10-27T09:07:12.676Z,20.10
2016-10-27T09:08:13.952Z,20.10
2016-10-27T09:09:11.781Z,20.10
2016-10-27T09:10:15.419Z,20.10
2016-10-27T09:11:11.115Z,20.10
2016-10-27T09:12:11.472Z,20.10
2016-10-27T09:13:11.807Z,20.10
2016-10-27T09:14:11.768Z,20.10
2016-10-27T09:15:12.808Z,20.10
2016-10-27T09:16:12.461Z,20.10
2016-10-27T09:17:09.528Z,20.10
2016-10-27T09:18:09.909Z,20.10
2016-10-27T09:19:13.319Z,20.10
2016-10-27T09:20:11.499Z,20.10
2016-10-27T09:21:12.867Z,20.10
2016-10-27T09:22:12.124Z,20.10
2016-10-27T09:23:11.386Z,20.10
2016-10-27T09:24:11.771Z,20.10
2016-10-27T09:25:11.054Z,20.10
2016-10-27T09:26:11.332Z,20.10
2016-10-27T09:27:11.725Z,20.10
2016-10-27T09:28:12.870Z,20.10
2016-10-27T09:29:13.305Z,20.10
2016-10-27T09:30:13.934Z,20.10
2016-10-27T09:31:11.058Z,20.10
2016-10-27T09:32:11.649Z,20.10
2016-10-27T09:33:08.722Z,20.10
2016-10-27T09:34:12.139Z,20.10
2016-10-27T09:35:12.304Z,20.10
2016-10-27T09:36:12.125Z,20.10
2016-10-27T09:37:11.834Z,20.10
2016-10-27T09:38:12.310Z,20.10
2016-10-27T09:39:11.715Z,20.10
2016-10-27T09:40:12.909Z,20.10
2016-10-27T09:41:14.238Z,20.10
2016-10-27T09:42:12.412Z,20.10
2016-10-27T09:43:11.836Z,20.10
2016-10-27T09:44:12.040Z,20.10
2016-10-27T09:45:12.565Z,20.10
2016-10-27T09:46:12.139Z,20.10
2016-10-27T09:47:11.698Z,20.10
2016-10-27T09:48:11.939Z,20.10
2016-10-27T09:49:11.306Z,20.10
2016-10-27T09:50:11.637Z,20.10
2016-10-27T09:51:09.674Z,20.10
2016-10-27T09:52:14.336Z,20.10
2016-10-27T09:53:11.892Z,20.10
2016-10-27T09:54:12.090Z,20.10
2016-10-27T09:55:09.137Z,20.10
2016-10-27T09:56:12.442Z,20.10
2016-10-27T09:57:12.301Z,20.10
2016-10-27T09:58:09.966Z,20.10
2016-10-27T09:59:13.983Z,20.10
2016-10-27T10:00:11.311Z,20.10
2016-10-27T10:01:12.721Z,20.10
2016-10-27T10:02:15.049Z,20.10
2016-10-27T10:03:15.084Z,20.10
2016-10-27T10:04:09.405Z,20.10
2016-10-27T10:05:11.967Z,20.10
2016-10-27T10:06:11.574Z,20.10
2016-10-27T10:07:11.903Z,20.10
2016-10-27T10:08:12.084Z,20.10
2016-10-27T10:09:11.882Z,20.10
2016-10-27T10:10:12.115Z,20.10
2016-10-27T10:11:13.806Z,20.10
2016-10-27T10:12:12.857Z,20.10
2016-10-27T10:13:13.944Z,20.10
2016-10-27T10:14:14.043Z,20.10
2016-10-27T10:15:12.237Z,20.10
2016-10-27T10:16:12.076Z,20.10
2016-10-27T10:17:11.637Z,20.10
2016-10-27T10:18:13.677Z,20.10
2016-10-27T10:19:13.067Z,20.10
2016-10-27T10:20:12.223Z,20.10
2016-10-27T10:21:11.497Z,20.10
2016-10-27T10:22:12.163Z,20.10
2016-10-27T10:23:12.984Z,20.20
2016-10-27T10:24:11.406Z,20.10
2016-10-27T10:25:13.497Z,20.20
2016-10-27T10:26:13.327Z,20.10
2016-10-27T10:27:11.366Z,20.10
2016-10-27T10:28:11.608Z,20.20
2016-10-27T10:29:13.527Z,20.20
2016-10-27T10:30:11.621Z,20.20
2016-10-27T10:31:12.707Z,20.20
2016-10-27T10:32:12.019Z,20.20
2016-10-27T10:33:14.104Z,20.20
2016-10-27T10:34:15.163Z,20.20
2016-10-27T10:35:12.637Z,20.20
2016-10-27T10:36:13.760Z,20.20
2016-10-27T10:37:12.619Z,20.20
2016-10-27T10:38:12.456Z,20.20
2016-10-27T10:39:13.400Z,20.20
2016-10-27T10:40:11.669Z,20.20
2016-10-27T10:41:12.339Z,20.20
2016-10-27T10:42:12.529Z,20.20
2016-10-27T10:43:11.714Z,20.20
2016-10-27T10:44:11.929Z,20.20
2016-10-27T10:45:14.213Z,20.20
2016-10-27T10:46:12.129Z,20.20
2016-10-27T10:47:12.022Z,20.20
2016-10-27T10:48:11.304Z,20.20
2016-10-27T10:49:09.711Z,20.20
2016-10-27T10:50:13.545Z,20.20
2016-10-27T10:51:13.053Z,20.20
2016-10-27T10:52:12.236Z,20.20
2016-10-27T10:53:12.056Z,20.20
2016-10-27T10:54:13.975Z,20.20
2016-10-27T10:55:12.678Z,20.20
2016-10-27T10:56:10.365Z,20.20
2016-10-27T10:57:11.733Z,20.20
2016-10-27T10:58:12.665Z,20.20
2016-10-27T10:59:10.185Z,20.20
2016-10-27T11:00:12.665Z,20.20
2016-10-27T11:01:12.048Z,20.20
2016-10-27T11:02:12.072Z,20.20
2016-10-27T11:03:11.629Z,20.20
2016-10-27T11:04:12.708Z,20.20
2016-10-27T11:05:14.368Z,20.20
2016-10-27T11:06:11.944Z,20.20
2016-10-27T11:07:12.830Z,20.20
2016-10-27T11:08:11.399Z,20.20
2016-10-27T11:09:12.391Z,20.20
2016-10-27T11:10:09.571Z,20.20
2016-10-27T11:11:13.090Z,20.20
2016-10-27T11:12:12.131Z,20.30
2016-10-27T11:13:13.209Z,20.20
2016-10-27T11:14:12.131Z,20.20
2016-10-27T11:15:10.060Z,20.20
2016-10-27T11:16:15.051Z,20.20
2016-10-27T11:17:12.361Z,20.20
2016-10-27T11:18:13.523Z,20.20
2016-10-27T11:19:12.339Z,20.20
2016-10-27T11:20:13.333Z,20.20
2016-10-27T11:21:11.758Z,20.20
2016-10-27T11:22:12.717Z,20.20
2016-10-27T11:23:10.216Z,20.20
2016-10-27T11:24:09.902Z,20.20
2016-10-27T11:25:14.788Z,20.20
2016-10-27T11:26:12.714Z,20.20
2016-10-27T11:27:12.763Z,20.20
2016-10-27T11:28:13.891Z,20.20
2016-10-27T11:29:12.563Z,20.20
2016-10-27T11:30:12.502Z,20.20
2016-10-27T11:31:13.376Z,20.20
2016-10-27T11:32:12.229Z,20.20
2016-10-27T11:33:12.186Z,20.20
2016-10-27T11:34:12.161Z,20.20
2016-10-27T11:35:10.048Z,20.20
2016-10-27T11:36:14.936Z,20.20
2016-10-27T11:37:12.000Z,20.20
2016-10-27T11:38:09.759Z,20.20
2016-10-27T11:39:11.388Z,20.20
2016-10-27T11:40:11.847Z,20.20
2016-10-27T11:41:11.171Z,20.20
2016-10-27T11:42:11.404Z,20.20
2016-10-27T11:43:12.295Z,20.20
2016-10-27T11:44:12.277Z,20.20
2016-10-27T11:45:12.100Z,20.30
2016-10-27T11:46:12.008Z,20.30
2016-10-27T11:47:13.737Z,20.30
2016-10-27T11:48:11.206Z,20.20
2016-10-27T11:49:09.889Z,20.30
2016-10-27T11:50:12.397Z,20.30
2016-10-27T11:51:12.501Z,20.30
2016-10-27T11:52:14.503Z,20.30
2016-10-27T11:53:11.873Z,20.30
2016-10-27T11:54:11.670Z,20.30
2016-10-27T11:55:12.343Z,20.30
2016-10-27T11:56:14.773Z,20.30
2016-10-27T11:57:12.229Z,20.30
2016-10-27T11:58:10.072Z,20.30
2016-10-27T11:59:12.373Z,20.30
2016-10-27T12:00:12.603Z,20.30
2016-10-27T12:01:12.753Z,20.30
2016-10-27T12:02:12.126Z,20.30
2016-10-27T12:03:08.504Z,20.30
2016-10-27T12:04:11.505Z,20.30
2016-10-27T12:05:12.711Z,20.30
2016-10-27T12:06:11.706Z,20.30
2016-10-27T12:07:15.466Z,20.30
2016-10-27T12:08:12.457Z,20.30
2016-10-27T12:09:12.306Z,20.30
2016-10-27T12:10:11.602Z,20.30
2016-10-27T12:11:12.724Z,20.30
2016-10-27T12:12:11.815Z,20.30
2016-10-27T12:13:12.168Z,20.20
2016-10-27T12:14:11.667Z,20.20
2016-10-27T12:15:12.708Z,20.30
2016-10-27T12:16:14.938Z,20.30
2016-10-27T12:17:12.665Z,20.20
2016-10-27T12:18:12.491Z,20.30
2016-10-27T12:19:12.489Z,20.20
2016-10-27T12:20:11.801Z,20.20
2016-10-27T12:21:11.896Z,20.20
2016-10-27T12:22:12.595Z,20.20
2016-10-27T12:23:12.396Z,20.20
2016-10-27T12:24:13.331Z,20.20
2016-10-27T12:25:10.818Z,20.20
2016-10-27T12:26:11.721Z,20.20
2016-10-27T12:27:15.620Z,20.20
2016-10-27T12:28:11.482Z,20.20
2016-10-27T12:29:11.992Z,20.20
2016-10-27T12:30:11.401Z,20.20
2016-10-27T12:31:12.379Z,20.20
2016-10-27T12:32:11.579Z,20.20
2016-10-27T12:33:12.742Z,20.30
2016-10-27T12:34:11.448Z,20.20
2016-10-27T12:35:10.329Z,20.20
2016-10-27T12:36:15.839Z,20.30
2016-10-27T12:37:11.801Z,20.30
2016-10-27T12:38:12.185Z,20.30
2016-10-27T12:39:12.025Z,20.30
2016-10-27T12:40:11.712Z,20.30
2016-10-27T12:41:12.216Z,20.30
2016-10-27T12:42:11.542Z,20.30
2016-10-27T12:43:11.906Z,20.30
2016-10-27T12:44:11.214Z,20.30
2016-10-27T12:45:14.319Z,20.30
2016-10-27T12:46:12.197Z,20.30
2016-10-27T12:47:11.729Z,20.30
2016-10-27T12:48:12.100Z,20.30
2016-10-27T12:49:11.960Z,20.30
2016-10-27T12:50:12.206Z,20.30
2016-10-27T12:51:11.349Z,20.30
2016-10-27T12:52:11.727Z,20.30
2016-10-27T12:53:11.847Z,20.30
2016-10-27T12:54:12.073Z,20.30
2016-10-27T12:55:11.864Z,20.30
2016-10-27T12:56:14.118Z,20.30
2016-10-27T12:57:12.294Z,20.30
2016-10-27T12:58:12.219Z,20.30
2016-10-27T12:59:11.560Z,20.30
2016-10-27T13:00:11.799Z,20.30
2016-10-27T13:01:12.068Z,20.30
2016-10-27T13:02:11.927Z,20.30
2016-10-27T13:03:13.931Z,20.30
2016-10-27T13:04:11.520Z,20.30
2016-10-27T13:05:15.606Z,20.30
2016-10-27T13:06:12.194Z,20.30
2016-10-27T13:07:12.027Z,20.30
2016-10-27T13:08:11.330Z,20.30